Time;durP1;ratioP1;P1;durP2;ratioP2;P2;SDS_P1;SDS_P2;PMS_P1;PMS_P2;Temp;Humidity;BMP_temperature;BMP_pressure;BME280_temperature;BME280_humidity;BME280_pressure;Samples;Min_cycle;Max_cycle;Signal;HPM_P1;HPM_P2
2023/04/03 00:01:31;;;;;;;;;6.60;6.60;;;;;0.51;79.24;101197.78;5131582;27;8818;-60
2023/04/03 00:03:58;;;;;;;;;6.00;6.00;;;;;0.50;79.20;101200.44;5138720;27;8829;-58
2023/04/03 00:06:26;;;;;;;;;3.60;3.60;;;;;0.47;79.89;101196.09;5139875;27;8818;-59
2023/04/03 00:08:53;;;;;;;;;3.00;2.60;;;;;0.46;79.08;101202.25;5139844;27;8818;-60
2023/04/03 00:11:21;;;;;;;;;4.00;3.20;;;;;0.44;79.36;101198.81;5140495;27;8829;-60
2023/04/03 00:13:49;;;;;;;;;4.00;3.80;;;;;0.44;79.80;101201.41;5140032;27;8818;-58
2023/04/03 00:16:19;;;;;;;;;3.40;3.00;;;;;0.43;79.75;101199.69;5140250;27;8829;-60
2023/04/03 00:18:46;;;;;;;;;3.80;3.80;;;;;0.42;79.72;101195.34;5140215;27;8822;-61
2023/04/03 00:21:14;;;;;;;;;1.40;1.00;;;;;0.43;80.08;101197.06;5139942;27;8821;-59
2023/04/03 00:23:42;;;;;;;;;3.00;3.00;;;;;0.42;79.65;101199.72;5139966;27;8826;-60
2023/04/03 00:26:09;;;;;;;;;5.20;4.00;;;;;0.40;79.38;101197.13;5134910;27;8800;-60
2023/04/03 00:28:37;;;;;;;;;2.60;2.60;;;;;0.38;79.89;101201.53;5118741;28;8838;-57
2023/04/03 00:31:05;;;;;;;;;0.60;0.00;;;;;0.36;80.18;101200.69;5132553;27;8838;-58
2023/04/03 00:33:33;;;;;;;;;3.00;3.00;;;;;0.34;79.63;101194.63;5139641;27;8838;-60
2023/04/03 00:36:00;;;;;;;;;3.00;3.00;;;;;0.33;79.89;101198.13;5139755;27;8818;-61
2023/04/03 00:38:28;;;;;;;;;5.20;3.60;;;;;0.33;80.06;101200.72;5139897;27;9522;-60
2023/04/03 00:40:57;;;;;;;;;3.00;2.60;;;;;0.32;79.92;101199.00;5139561;27;8829;-60
2023/04/03 00:43:24;;;;;;;;;2.60;2.60;;;;;0.30;79.97;101200.81;5139530;27;8825;-58
2023/04/03 00:45:52;;;;;;;;;3.00;3.00;;;;;0.28;80.28;101204.34;5138255;27;8971;-60
2023/04/03 00:48:19;;;;;;;;;3.40;3.40;;;;;0.26;79.67;101201.78;5139324;27;8821;-60
2023/04/03 00:50:47;;;;;;;;;1.00;1.00;;;;;0.26;80.05;101201.78;5139796;27;8821;-59
2023/04/03 00:53:15;;;;;;;;;1.00;1.00;;;;;0.27;79.91;101208.72;5139841;27;8860;-59
2023/04/03 00:55:43;;;;;;;;;6.00;5.60;;;;;0.26;80.01;101207.00;5139277;27;8911;-60
2023/04/03 00:58:10;;;;;;;;;3.20;3.20;;;;;0.28;79.71;101204.34;5128362;27;8822;-60
2023/04/03 01:00:39;;;;;;;;;3.00;3.00;;;;;0.29;80.14;101213.91;5127979;27;8810;-59
2023/04/03 01:03:06;;;;;;;;;3.80;3.80;;;;;0.31;79.68;101215.63;5122591;27;8796;-58
2023/04/03 01:05:34;;;;;;;;;3.40;3.40;;;;;0.32;80.00;101208.66;5118642;28;8811;-59
2023/04/03 01:08:02;;;;;;;;;4.00;4.00;;;;;0.33;79.77;101213.84;5118508;28;8839;-60
2023/04/03 01:10:30;;;;;;;;;3.20;3.20;;;;;0.33;79.54;101219.06;5118471;28;8827;-59
2023/04/03 01:12:57;;;;;;;;;3.20;3.20;;;;;0.33;80.03;101213.84;5118680;28;8816;-60
2023/04/03 01:15:25;;;;;;;;;3.00;3.00;;;;;0.33;80.18;101215.59;5118194;28;8831;-60
2023/04/03 01:17:53;;;;;;;;;3.40;3.40;;;;;0.35;79.79;101219.06;5118183;28;8832;-60
2023/04/03 01:20:21;;;;;;;;;5.60;4.80;;;;;0.35;79.32;101214.69;5118496;28;9568;-60
2023/04/03 01:22:48;;;;;;;;;6.40;6.00;;;;;0.35;79.55;101221.66;5118073;28;8842;-59
2023/04/03 01:25:16;;;;;;;;;4.00;4.00;;;;;0.33;79.92;101219.06;5118099;28;8819;-60
2023/04/03 01:27:43;;;;;;;;;3.20;3.20;;;;;0.34;79.67;101217.31;5117369;28;8811;-60
2023/04/03 01:30:11;;;;;;;;;2.60;1.40;;;;;0.33;79.87;101213.84;5123974;27;8833;-60
2023/04/03 01:32:39;;;;;;;;;4.80;4.00;;;;;0.32;79.89;101212.09;5138944;27;8902;-60
2023/04/03 01:35:07;;;;;;;;;4.40;4.00;;;;;0.33;80.34;101213.84;5138432;27;8910;-59
2023/04/03 01:37:34;;;;;;;;;5.20;4.00;;;;;0.34;79.35;101219.94;5138696;27;9588;-59
2023/04/03 01:40:02;;;;;;;;;3.60;3.60;;;;;0.34;79.38;101217.31;5138641;27;8906;-60
2023/04/03 01:42:33;;;;;;;;;3.20;3.20;;;;;0.35;80.18;101219.94;5139015;27;8826;-59
2023/04/03 01:45:01;;;;;;;;;4.20;3.00;;;;;0.35;80.26;101225.16;5117304;28;8808;-60
2023/04/03 01:47:28;;;;;;;;;3.00;3.00;;;;;0.36;79.81;101224.28;5117881;28;8815;-60
2023/04/03 01:49:56;;;;;;;;;3.00;2.60;;;;;0.36;79.83;101219.03;5118012;28;8860;-60
2023/04/03 01:52:23;;;;;;;;;1.00;1.00;;;;;0.43;79.45;101219.78;5117755;28;8836;-60
2023/04/03 01:54:51;;;;;;;;;3.00;3.00;;;;;0.53;80.04;101216.97;5117768;28;8843;-60
2023/04/03 01:57:19;;;;;;;;;2.20;1.00;;;;;0.71;79.94;101210.50;5116975;28;8820;-60
2023/04/03 01:59:47;;;;;;;;;2.60;2.60;;;;;0.83;79.64;101213.75;5119705;27;8824;-60
2023/04/03 02:02:14;;;;;;;;;0.00;0.00;;;;;0.94;79.15;101211.78;5138057;27;8805;-61
2023/04/03 02:04:42;;;;;;;;;2.80;2.60;;;;;1.01;78.87;101210.75;5137895;27;8825;-58
2023/04/03 02:07:12;;;;;;;;;1.00;1.00;;;;;1.11;79.17;101211.41;5138126;27;8837;-59
2023/04/03 02:09:39;;;;;;;;;1.80;1.80;;;;;1.19;78.73;101204.25;5138154;27;9534;-60
2023/04/03 02:12:07;;;;;;;;;1.80;1.80;;;;;1.28;78.36;101204.91;5138031;27;8853;-60
2023/04/03 02:14:34;;;;;;;;;2.20;2.20;;;;;1.35;79.25;101203.00;5137932;27;9503;-60
2023/04/03 02:17:04;;;;;;;;;0.60;0.60;;;;;1.41;79.14;101206.38;5137578;27;8821;-59
2023/04/03 02:19:32;;;;;;;;;1.00;1.00;;;;;1.48;79.00;101212.34;5137646;27;8830;-61
2023/04/03 02:22:00;;;;;;;;;1.00;1.00;;;;;1.52;78.60;101209.63;5137590;27;8833;-60
2023/04/03 02:24:28;;;;;;;;;0.00;0.00;;;;;1.55;78.84;101209.56;5117896;27;8816;-60
2023/04/03 02:26:56;;;;;;;;;0.00;0.00;;;;;1.57;78.75;101220.88;5116013;28;8916;-60
2023/04/03 02:29:24;;;;;;;;;0.00;0.00;;;;;1.57;78.34;101220.88;5117156;28;9465;-61
2023/04/03 02:31:52;;;;;;;;;0.80;0.80;;;;;1.60;78.77;101222.56;5136827;27;8798;-58
2023/04/03 02:34:20;;;;;;;;;0.20;0.00;;;;;1.59;78.91;101221.69;5137698;27;8909;-61
2023/04/03 02:36:47;;;;;;;;;0.20;0.20;;;;;1.57;78.53;101223.50;5137187;27;8849;-60
2023/04/03 02:39:15;;;;;;;;;0.80;0.80;;;;;1.59;78.71;101233.97;5137591;27;8810;-60
2023/04/03 02:41:43;;;;;;;;;0.80;0.80;;;;;1.60;78.15;101233.91;5137473;27;8830;-60
2023/04/03 02:44:11;;;;;;;;;0.80;0.60;;;;;1.59;78.85;101232.19;5137820;27;8810;-60
2023/04/03 02:46:38;;;;;;;;;1.00;1.00;;;;;1.60;79.26;101233.91;5136673;27;8826;-60
2023/04/03 02:49:06;;;;;;;;;0.00;0.00;;;;;1.61;79.42;101230.38;5136777;27;8877;-59
2023/04/03 02:51:34;;;;;;;;;1.00;1.00;;;;;1.61;79.12;101234.78;5136083;27;8914;-60
2023/04/03 02:54:01;;;;;;;;;1.40;0.60;;;;;1.62;78.43;101239.13;5121600;27;8815;-59
2023/04/03 02:56:29;;;;;;;;;0.80;0.80;;;;;1.61;78.99;101238.25;5116583;28;8839;-60
2023/04/03 02:58:57;;;;;;;;;1.00;1.00;;;;;1.63;79.38;101231.25;5116264;28;8939;-60
2023/04/03 03:01:24;;;;;;;;;0.00;0.00;;;;;1.64;79.33;101232.97;5132325;27;8891;-60
2023/04/03 03:03:52;;;;;;;;;0.80;0.80;;;;;1.66;78.64;101228.53;5136806;27;8923;-60
2023/04/03 03:06:19;;;;;;;;;0.80;0.80;;;;;1.69;78.49;101225.84;5136748;27;8817;-59
2023/04/03 03:08:48;;;;;;;;;0.20;0.20;;;;;1.73;78.79;101226.63;5136926;27;8821;-60
2023/04/03 03:11:15;;;;;;;;;0.00;0.00;;;;;1.72;79.03;101228.41;5136787;27;8846;-60
2023/04/03 03:13:43;;;;;;;;;0.40;0.00;;;;;1.73;78.98;101224.88;5136805;27;8832;-60
2023/04/03 03:16:11;;;;;;;;;1.00;1.00;;;;;1.75;78.82;101228.31;5136781;27;8837;-61
2023/04/03 03:18:38;;;;;;;;;0.60;0.60;;;;;1.73;78.91;101238.00;5136660;27;8841;-58
2023/04/03 03:21:07;;;;;;;;;1.00;1.00;;;;;1.71;78.95;101231.94;5136802;27;8841;-60
2023/04/03 03:23:34;;;;;;;;;0.00;0.00;;;;;1.70;78.69;101240.69;5125519;28;8839;-60
2023/04/03 03:26:02;;;;;;;;;0.80;0.80;;;;;1.71;78.49;101231.03;5116335;28;8836;-58
2023/04/03 03:28:29;;;;;;;;;0.80;0.00;;;;;1.74;79.02;101236.25;5116416;28;8905;-58
2023/04/03 03:30:57;;;;;;;;;0.80;0.00;;;;;1.75;78.58;101238.81;5123512;28;8856;-60
2023/04/03 03:33:25;;;;;;;;;0.00;0.00;;;;;1.74;78.36;101239.72;5115746;28;8915;-59
2023/04/03 03:35:53;;;;;;;;;0.00;0.00;;;;;1.72;78.66;101238.03;5116050;28;8850;-58
2023/04/03 03:38:21;;;;;;;;;0.40;0.40;;;;;1.70;78.72;101238.06;5117973;28;8828;-60
2023/04/03 03:40:49;;;;;;;;;0.40;0.40;;;;;1.72;79.04;101238.03;5120178;28;8824;-61
2023/04/03 03:43:17;;;;;;;;;0.00;0.00;;;;;1.72;78.48;101235.41;5120948;28;8844;-60
2023/04/03 03:45:45;;;;;;;;;0.60;0.40;;;;;1.69;78.62;101236.34;5120202;28;9540;-59
2023/04/03 03:48:12;;;;;;;;;0.00;0.00;;;;;1.68;78.95;101237.22;5119915;28;8924;-61
2023/04/03 03:50:40;;;;;;;;;1.00;0.20;;;;;1.68;78.85;101233.75;5119907;28;8832;-60
2023/04/03 03:53:08;;;;;;;;;0.00;0.00;;;;;1.67;79.38;101240.75;5119664;28;8846;-59
2023/04/03 03:55:35;;;;;;;;;0.00;0.00;;;;;1.64;78.99;101227.72;5119054;28;8959;-61
2023/04/03 03:58:05;;;;;;;;;0.80;0.80;;;;;1.60;79.13;101236.53;5118255;28;8954;-60
2023/04/03 04:00:33;;;;;;;;;1.00;1.00;;;;;1.58;78.86;101234.84;5126866;27;8818;-60
2023/04/03 04:03:00;;;;;;;;;0.40;0.40;;;;;1.55;78.85;101238.44;5130986;27;8812;-59
2023/04/03 04:05:28;;;;;;;;;0.00;0.00;;;;;1.53;78.76;101242.81;5118390;28;8847;-59
2023/04/03 04:07:56;;;;;;;;;0.40;0.40;;;;;1.51;78.94;101243.78;5118582;28;8916;-58
2023/04/03 04:10:24;;;;;;;;;1.00;1.00;;;;;1.49;78.87;101240.31;5119365;28;8800;-60
2023/04/03 04:12:51;;;;;;;;;0.60;0.60;;;;;1.44;79.38;101253.53;5119570;28;8816;-60
2023/04/03 04:15:21;;;;;;;;;1.00;1.00;;;;;1.43;79.44;101248.31;5119427;28;8843;-61
2023/04/03 04:17:48;;;;;;;;;0.80;0.80;;;;;1.41;79.33;101248.34;5119251;28;8865;-60
2023/04/03 04:20:16;;;;;;;;;1.00;1.00;;;;;1.39;79.24;101239.66;5119086;28;8816;-60
2023/04/03 04:22:44;;;;;;;;;3.00;3.00;;;;;1.38;79.19;101255.44;5119162;28;8831;-60
2023/04/03 04:25:11;;;;;;;;;0.80;0.60;;;;;1.38;79.25;101250.19;5119469;28;8844;-60
2023/04/03 04:27:39;;;;;;;;;0.20;0.00;;;;;1.36;79.37;101244.97;5119012;28;8824;-59
2023/04/03 04:30:06;;;;;;;;;0.20;0.20;;;;;1.35;79.28;101251.09;5123939;27;8806;-61
2023/04/03 04:32:34;;;;;;;;;1.40;1.40;;;;;1.35;79.08;101258.97;5139548;27;8802;-59
2023/04/03 04:35:02;;;;;;;;;0.20;0.20;;;;;1.33;79.44;101257.28;5139955;27;8920;-61
2023/04/03 04:37:30;;;;;;;;;0.60;0.60;;;;;1.31;79.17;101257.31;5139269;27;8838;-60
2023/04/03 04:39:58;;;;;;;;;0.00;0.00;;;;;1.29;79.80;101258.25;5139180;27;8885;-60
2023/04/03 04:42:30;;;;;;;;;0.00;0.00;;;;;1.27;79.48;101266.16;5139100;27;8834;-60
2023/04/03 04:44:57;;;;;;;;;0.60;0.60;;;;;1.22;79.61;101260.13;5138668;27;8840;-60
2023/04/03 04:47:25;;;;;;;;;3.00;0.80;;;;;1.20;79.70;101263.66;5138505;27;8830;-59
2023/04/03 04:49:53;;;;;;;;;1.80;1.80;;;;;1.16;79.61;101268.13;5125613;27;8844;-57
2023/04/03 04:52:20;;;;;;;;;1.00;1.00;;;;;1.12;79.68;101268.22;5117598;28;8804;-60
2023/04/03 04:54:48;;;;;;;;;1.00;1.00;;;;;1.08;79.90;101270.03;5118059;28;8851;-60
2023/04/03 04:57:16;;;;;;;;;0.00;0.00;;;;;1.08;79.95;101275.28;5118295;28;8836;-61
2023/04/03 04:59:44;;;;;;;;;0.00;0.00;;;;;1.09;79.83;101282.28;5119558;27;8850;-60
2023/04/03 05:02:12;;;;;;;;;4.00;3.80;;;;;1.09;79.77;101281.41;5138728;27;8952;-60
2023/04/03 05:04:40;;;;;;;;;2.40;0.80;;;;;1.08;79.42;101279.66;5138275;27;8837;-60
2023/04/03 05:07:08;;;;;;;;;1.00;1.00;;;;;1.05;79.44;101284.97;5137535;27;8859;-59
2023/04/03 05:09:35;;;;;;;;;1.80;1.00;;;;;1.01;80.09;101294.63;5137403;27;8833;-57
2023/04/03 05:12:04;;;;;;;;;3.00;1.40;;;;;0.97;80.27;101290.38;5137454;27;8868;-58
2023/04/03 05:14:31;;;;;;;;;0.40;0.40;;;;;0.92;80.09;101297.44;5138168;27;8856;-61
2023/04/03 05:16:59;;;;;;;;;0.00;0.00;;;;;0.88;79.97;101301.03;5137664;27;8910;-60
2023/04/03 05:19:27;;;;;;;;;0.00;0.00;;;;;0.82;79.85;101303.75;5129914;27;8978;-61
2023/04/03 05:21:54;;;;;;;;;0.40;0.00;;;;;0.79;79.79;101302.97;5117253;28;8816;-58
2023/04/03 05:24:24;;;;;;;;;0.80;0.80;;;;;0.76;79.93;101303.88;5118059;28;8921;-60
2023/04/03 05:26:52;;;;;;;;;2.20;1.80;;;;;0.78;80.10;101304.69;5117828;28;8832;-61
2023/04/03 05:29:19;;;;;;;;;6.00;3.00;;;;;0.80;80.12;101305.56;5117238;28;8847;-58
2023/04/03 05:31:47;;;;;;;;;2.20;2.20;;;;;0.84;79.92;101314.22;5136054;27;8822;-60
2023/04/03 05:34:15;;;;;;;;;1.00;1.00;;;;;0.85;79.74;101311.56;5137366;27;8914;-60
2023/04/03 05:36:42;;;;;;;;;1.00;1.00;;;;;0.84;80.33;101317.69;5137420;27;8921;-61
2023/04/03 05:39:10;;;;;;;;;0.60;0.00;;;;;0.88;80.22;101318.50;5137186;27;8844;-60
2023/04/03 05:41:38;;;;;;;;;1.00;1.00;;;;;0.88;79.93;101327.25;5137816;27;9660;-60
2023/04/03 05:44:05;;;;;;;;;0.00;0.00;;;;;0.91;80.00;101323.72;5138401;27;8840;-59
2023/04/03 05:46:34;;;;;;;;;0.80;0.80;;;;;0.96;80.12;101333.22;5137847;27;8853;-60
2023/04/03 05:49:01;;;;;;;;;3.60;2.20;;;;;1.01;80.13;101331.34;5133544;27;8832;-60
2023/04/03 05:51:29;;;;;;;;;3.00;3.00;;;;;1.12;79.88;101339.91;5116210;28;8828;-60
2023/04/03 05:53:57;;;;;;;;;1.40;1.40;;;;;1.20;79.91;101332.75;5115751;28;8847;-61
2023/04/03 05:56:25;;;;;;;;;1.00;1.00;;;;;1.28;79.59;101343.94;5116480;28;8855;-61
2023/04/03 05:58:53;;;;;;;;;1.80;1.80;;;;;1.35;79.12;101336.81;5116404;28;8852;-61
2023/04/03 06:01:21;;;;;;;;;3.00;1.80;;;;;1.42;79.15;101338.41;5131139;27;8825;-59
2023/04/03 06:03:49;;;;;;;;;1.40;1.40;;;;;1.49;78.80;101334.78;5135951;27;8825;-60
2023/04/03 06:06:17;;;;;;;;;1.00;1.00;;;;;1.58;78.78;101335.44;5136690;27;8852;-60
2023/04/03 06:08:45;;;;;;;;;2.20;2.20;;;;;1.69;78.52;101340.47;5136204;27;8837;-60
2023/04/03 06:11:13;;;;;;;;;2.20;2.20;;;;;1.79;78.26;101345.50;5135715;27;8860;-59
2023/04/03 06:13:41;;;;;;;;;1.00;1.00;;;;;1.90;77.94;101353.16;5136086;27;8825;-59
2023/04/03 06:16:09;;;;;;;;;0.80;0.80;;;;;1.98;77.88;101351.22;5136532;27;8841;-61
2023/04/03 06:18:37;;;;;;;;;3.20;3.00;;;;;2.08;78.00;101350.97;5135507;27;8992;-60
2023/04/03 06:21:04;;;;;;;;;1.40;1.00;;;;;2.20;77.58;101357.72;5114450;28;9551;-58
2023/04/03 06:23:32;;;;;;;;;2.60;2.60;;;;;2.29;77.72;101352.22;5113999;28;8823;-59
2023/04/03 06:26:00;;;;;;;;;1.00;1.00;;;;;2.38;77.90;101347.63;5114715;28;8977;-58
2023/04/03 06:28:28;;;;;;;;;1.00;1.00;;;;;2.47;77.13;101351.78;5115348;28;8935;-59
2023/04/03 06:30:56;;;;;;;;;0.40;0.40;;;;;2.55;77.19;101355.97;5126477;27;8841;-57
2023/04/03 06:33:24;;;;;;;;;4.00;3.80;;;;;2.65;77.06;101346.94;5135080;27;8822;-60
2023/04/03 06:35:52;;;;;;;;;5.00;3.20;;;;;2.72;77.19;101360.81;5135666;27;8834;-60
2023/04/03 06:38:20;;;;;;;;;1.00;1.00;;;;;2.79;77.14;101355.34;5136430;27;8888;-58
2023/04/03 06:40:48;;;;;;;;;0.40;0.00;;;;;2.89;76.69;101351.56;5136890;27;8846;-60
2023/04/03 06:43:16;;;;;;;;;0.00;0.00;;;;;2.96;76.99;101347.03;5137001;27;8826;-60
2023/04/03 06:45:43;;;;;;;;;1.00;1.00;;;;;3.05;77.01;101352.03;5116314;28;8839;-59
2023/04/03 06:48:11;;;;;;;;;1.00;1.00;;;;;3.12;75.97;101353.59;5116480;28;8915;-59
2023/04/03 06:50:39;;;;;;;;;3.00;3.00;;;;;3.14;76.17;101352.66;5115734;28;8839;-61
2023/04/03 06:53:06;;;;;;;;;0.80;0.80;;;;;3.18;76.69;101354.28;5115183;28;8844;-60
2023/04/03 06:55:34;;;;;;;;;2.20;2.20;;;;;3.24;76.25;101359.41;5114726;28;8816;-60
2023/04/03 06:58:03;;;;;;;;;1.80;1.80;;;;;3.31;76.50;101370.59;5114350;28;9818;-60
2023/04/03 07:00:31;;;;;;;;;1.00;1.00;;;;;3.35;76.27;101362.63;5122324;27;9798;-60
2023/04/03 07:02:59;;;;;;;;;0.00;0.00;;;;;3.39;76.22;101366.88;5134901;27;8863;-60
2023/04/03 07:05:27;;;;;;;;;0.40;0.00;;;;;3.46;75.96;101367.53;5135211;27;8838;-59
2023/04/03 07:07:55;;;;;;;;;1.80;1.40;;;;;3.52;76.13;101370.00;5135142;27;8826;-59
2023/04/03 07:10:23;;;;;;;;;0.80;0.00;;;;;3.57;75.74;101366.34;5135582;27;8825;-59
2023/04/03 07:12:50;;;;;;;;;0.00;0.00;;;;;3.60;75.53;101353.09;5134756;27;8829;-59
2023/04/03 07:15:20;;;;;;;;;1.00;1.00;;;;;3.64;75.21;101369.69;5135977;27;8857;-58
2023/04/03 07:17:48;;;;;;;;;0.00;0.00;;;;;3.67;75.42;101370.47;5135581;27;8845;-58
2023/04/03 07:20:16;;;;;;;;;0.80;0.00;;;;;3.72;75.02;101372.03;5135679;27;8871;-59
2023/04/03 07:22:44;;;;;;;;;6.00;3.00;;;;;3.79;75.18;101375.34;5135496;27;9521;-60
2023/04/03 07:25:12;;;;;;;;;1.00;1.00;;;;;3.85;75.38;101380.44;5134631;27;9511;-58
2023/04/03 07:27:40;;;;;;;;;0.00;0.00;;;;;3.90;74.50;101384.66;5114896;28;8820;-59
2023/04/03 07:30:09;;;;;;;;;1.00;0.00;;;;;3.95;74.91;101381.91;5118336;27;8848;-61
2023/04/03 07:32:36;;;;;;;;;0.60;0.20;;;;;4.01;74.94;101390.50;5134245;27;8848;-59
2023/04/03 07:35:04;;;;;;;;;0.20;0.20;;;;;4.09;74.30;101391.13;5128097;28;8824;-60
2023/04/03 07:37:33;;;;;;;;;3.00;1.00;;;;;4.18;74.23;101388.22;5113668;28;8844;-58
2023/04/03 07:40:03;;;;;;;;;1.00;1.00;;;;;4.27;73.65;101381.81;5113840;28;8964;-58
2023/04/03 07:42:31;;;;;;;;;0.60;0.60;;;;;4.34;73.63;101392.09;5115733;27;8832;-59
2023/04/03 07:44:59;;;;;;;;;0.80;0.80;;;;;4.37;73.65;101391.13;5134986;27;8850;-60
2023/04/03 07:47:27;;;;;;;;;0.00;0.00;;;;;4.39;72.73;101390.19;5133888;27;9789;-60
2023/04/03 07:49:57;;;;;;;;;0.00;0.00;;;;;4.42;73.31;101390.06;5133228;27;8919;-58
2023/04/03 07:52:24;;;;;;;;;0.60;0.00;;;;;4.48;72.67;101386.41;5133481;27;9479;-59
2023/04/03 07:54:52;;;;;;;;;0.00;0.00;;;;;4.55;72.38;101385.28;5134035;27;8984;-61
2023/04/03 07:57:20;;;;;;;;;0.00;0.00;;;;;4.65;72.58;101392.84;5134229;27;8833;-57
2023/04/03 07:59:48;;;;;;;;;1.00;0.00;;;;;4.79;72.33;101389.78;5133245;27;8852;-59
2023/04/03 08:02:16;;;;;;;;;0.00;0.00;;;;;4.90;71.93;101392.91;5133292;27;8833;-60
2023/04/03 08:04:45;;;;;;;;;1.00;1.00;;;;;4.96;71.71;101383.03;5131704;27;9765;-59
2023/04/03 08:07:12;;;;;;;;;1.00;1.00;;;;;5.02;71.07;101390.72;5113625;28;8844;-60
2023/04/03 08:09:41;;;;;;;;;0.20;0.20;;;;;5.06;70.90;101392.34;5113772;28;8951;-60
2023/04/03 08:12:11;;;;;;;;;1.00;1.00;;;;;5.13;71.04;101391.22;5113653;28;8824;-60
2023/04/03 08:14:39;;;;;;;;;0.00;0.00;;;;;5.19;70.83;101395.44;5114004;28;9877;-60
2023/04/03 08:17:11;;;;;;;;;0.40;0.40;;;;;5.26;70.17;101403.06;5114357;28;8966;-60
2023/04/03 08:19:39;;;;;;;;;0.80;0.80;;;;;5.32;69.92;101397.56;5113179;28;8999;-61
2023/04/03 08:22:07;;;;;;;;;0.80;0.80;;;;;5.42;70.47;101408.69;5112844;28;8876;-59
2023/04/03 08:24:34;;;;;;;;;0.00;0.00;;;;;5.49;69.71;101410.19;5114561;28;8851;-59
2023/04/03 08:27:04;;;;;;;;;0.00;0.00;;;;;5.58;69.26;101401.94;5117008;28;8819;-60
2023/04/03 08:29:32;;;;;;;;;1.00;1.00;;;;;5.64;69.36;101399.97;5116403;28;8808;-60
2023/04/03 08:32:01;;;;;;;;;0.00;0.00;;;;;5.73;69.04;101404.91;5117700;27;8845;-60
2023/04/03 08:34:28;;;;;;;;;0.80;0.80;;;;;5.82;68.45;101396.66;5116844;28;8964;-60
2023/04/03 08:36:56;;;;;;;;;3.00;1.40;;;;;5.88;68.18;101383.22;5116209;28;9539;-59
2023/04/03 08:39:24;;;;;;;;;1.00;1.00;;;;;5.98;68.23;101389.88;5116887;28;8962;-61
2023/04/03 08:41:52;;;;;;;;;1.00;1.00;;;;;6.09;67.53;101384.19;5116508;28;9520;-59
2023/04/03 08:44:22;;;;;;;;;0.00;0.00;;;;;6.17;67.81;101385.63;5116385;28;9532;-60
2023/04/03 08:46:50;;;;;;;;;0.40;0.40;;;;;6.31;67.27;101380.63;5116522;28;8932;-60
2023/04/03 08:49:18;;;;;;;;;1.00;1.00;;;;;6.40;67.03;101382.94;5116981;28;8855;-59
2023/04/03 08:51:46;;;;;;;;;1.40;1.00;;;;;6.53;67.23;101384.16;5117623;28;8906;-60
2023/04/03 08:54:13;;;;;;;;;2.20;1.40;;;;;6.66;66.34;101379.25;5117170;28;8839;-60
2023/04/03 08:56:41;;;;;;;;;0.80;0.80;;;;;6.78;66.08;101389.31;5117046;28;8848;-61
2023/04/03 08:59:09;;;;;;;;;0.00;0.00;;;;;6.88;65.70;101390.66;5116191;28;8906;-61
2023/04/03 09:01:37;;;;;;;;;0.00;0.00;;;;;6.99;65.45;101385.78;5133156;27;8835;-60
2023/04/03 09:04:06;;;;;;;;;0.00;0.00;;;;;7.09;65.22;101387.13;5136299;27;8838;-60
2023/04/03 09:06:35;;;;;;;;;0.00;0.00;;;;;7.21;64.98;101384.81;5136386;27;8849;-60
2023/04/03 09:09:05;;;;;;;;;0.20;0.20;;;;;7.47;64.32;101388.97;5136178;27;8826;-60
2023/04/03 09:11:33;;;;;;;;;0.00;0.00;;;;;7.73;63.82;101378.94;5136030;27;8838;-59
2023/04/03 09:14:02;;;;;;;;;0.00;0.00;;;;;8.00;63.35;101373.22;5136195;27;8833;-58
2023/04/03 09:16:30;;;;;;;;;0.00;0.00;;;;;8.24;63.20;101376.56;5133427;27;8869;-58
2023/04/03 09:18:59;;;;;;;;;0.00;0.00;;;;;8.51;62.92;101372.63;5115613;28;8856;-60
2023/04/03 09:21:27;;;;;;;;;0.00;0.00;;;;;8.76;62.58;101378.44;5114914;28;8970;-57
2023/04/03 09:23:55;;;;;;;;;0.00;0.00;;;;;8.87;61.83;101373.44;5115066;28;8835;-61
2023/04/03 09:26:23;;;;;;;;;0.50;0.00;;;;;9.11;61.82;101372.25;5115150;28;8844;-61
2023/04/03 09:28:51;;;;;;;;;0.00;0.00;;;;;9.43;60.96;101369.63;5115591;28;8831;-61
2023/04/03 09:31:20;;;;;;;;;0.00;0.00;;;;;9.73;61.21;101373.31;5130659;27;8814;-61
2023/04/03 09:33:48;;;;;;;;;1.00;1.00;;;;;9.92;60.72;101363.44;5136616;27;8841;-61
2023/04/03 09:36:16;;;;;;;;;0.25;0.00;;;;;9.98;60.18;101360.44;5136518;27;8842;-59
2023/04/03 09:38:44;;;;;;;;;0.25;0.25;;;;;10.03;60.20;101373.53;5136682;27;8837;-60
2023/04/03 09:41:12;;;;;;;;;0.00;0.00;;;;;9.94;60.14;101361.53;5136300;27;8848;-59
2023/04/03 09:43:41;;;;;;;;;0.00;0.00;;;;;9.79;59.98;101373.00;5136374;27;8845;-58
2023/04/03 09:46:09;;;;;;;;;0.00;0.00;;;;;9.57;59.45;101368.91;5135841;27;8852;-58
2023/04/03 09:48:37;;;;;;;;;0.50;0.00;;;;;9.45;59.53;101366.88;5114948;27;8855;-59
2023/04/03 09:51:05;;;;;;;;;0.00;0.00;;;;;9.35;59.26;101365.66;5115353;28;8820;-59
2023/04/03 09:53:32;;;;;;;;;0.00;0.00;;;;;9.27;59.07;101367.84;5114904;28;8839;-58
2023/04/03 09:56:03;;;;;;;;;1.50;0.50;;;;;9.31;58.55;101362.28;5114362;28;8851;-58
2023/04/03 09:58:33;;;;;;;;;0.00;0.00;;;;;9.72;57.71;101354.81;5114767;28;8962;-59
2023/04/03 10:01:16;;;;;;;;;0.00;0.00;;;;;10.40;55.50;101341.25;5128920;27;8867;-59
2023/04/03 10:03:46;;;;;;;;;0.00;0.00;;;;;11.20;54.33;101338.25;5135359;27;9783;-58
2023/04/03 10:06:15;;;;;;;;;0.00;0.00;;;;;11.92;52.30;101328.44;5135752;27;8968;-59
2023/04/03 10:08:42;;;;;;;;;0.00;0.00;;;;;12.60;51.43;101327.53;5135761;27;8834;-59
2023/04/03 10:11:11;;;;;;;;;0.00;0.00;;;;;13.14;50.74;101332.72;5135452;27;8861;-60
2023/04/03 10:13:39;;;;;;;;;0.00;0.00;;;;;13.62;49.68;101325.81;5134256;27;8833;-60
2023/04/03 10:16:18;;;;;;;;;0.50;0.00;;;;;14.22;48.62;101316.97;5133998;27;8926;-58
2023/04/03 10:18:46;;;;;;;;;0.00;0.00;;;;;14.64;48.39;101318.31;5114097;28;8886;-59
2023/04/03 10:21:14;;;;;;;;;0.00;0.00;;;;;15.19;47.92;101305.13;5113944;28;8832;-58
2023/04/03 10:23:53;;;;;;;;;0.00;0.00;;;;;15.87;45.88;101305.97;5114179;28;8851;-60
2023/04/03 10:26:21;;;;;;;;;0.50;0.00;;;;;16.12;44.42;101305.72;5114543;28;9007;-59
2023/04/03 10:28:50;;;;;;;;;0.00;0.00;;;;;16.23;43.92;101303.03;5114875;28;8984;-60
2023/04/03 10:31:19;;;;;;;;;1.00;1.00;;;;;16.39;43.95;101307.91;5129607;27;8830;-60
2023/04/03 10:33:47;;;;;;;;;0.00;0.00;;;;;16.61;43.88;101307.84;5135668;27;9499;-59
2023/04/03 10:36:15;;;;;;;;;0.00;0.00;;;;;16.89;43.05;101296.50;5135354;27;8817;-60
2023/04/03 10:38:43;;;;;;;;;0.40;0.00;;;;;17.27;42.34;101301.31;5134672;27;9673;-60
2023/04/03 10:41:11;;;;;;;;;0.00;0.00;;;;;17.50;42.02;101302.91;5135282;27;8844;-59
2023/04/03 10:43:41;;;;;;;;;0.00;0.00;;;;;17.74;41.66;101298.06;5135318;27;8813;-60
2023/04/03 10:46:09;;;;;;;;;0.00;0.00;;;;;17.80;40.63;101311.03;5135926;27;9483;-60
2023/04/03 10:48:37;;;;;;;;;0.40;0.40;;;;;17.76;41.09;101301.50;5114262;27;8852;-59
2023/04/03 10:51:06;;;;;;;;;0.00;0.00;;;;;17.73;40.77;101302.63;5113930;28;9513;-59
2023/04/03 10:53:35;;;;;;;;;0.00;0.00;;;;;17.80;40.07;101297.53;5114185;28;8940;-60
2023/04/03 10:56:03;;;;;;;;;0.00;0.00;;;;;17.94;39.60;101305.28;5113928;28;8840;-59
2023/04/03 10:58:31;;;;;;;;;1.00;1.00;;;;;17.98;39.36;101307.56;5113944;28;8852;-60
2023/04/03 11:01:00;;;;;;;;;0.00;0.00;;;;;18.11;38.46;101305.50;5126287;27;8829;-59
2023/04/03 11:03:28;;;;;;;;;0.00;0.00;;;;;18.16;38.12;101305.94;5134698;27;8825;-59
2023/04/03 11:05:57;;;;;;;;;1.00;0.00;;;;;18.38;38.03;101296.78;5135204;27;8860;-59
2023/04/03 11:08:26;;;;;;;;;0.00;0.00;;;;;18.66;37.33;101287.91;5134685;27;8944;-59
2023/04/03 11:10:54;;;;;;;;;0.00;0.00;;;;;18.62;37.45;101291.88;5134002;27;8910;-59
2023/04/03 11:13:22;;;;;;;;;0.80;0.00;;;;;18.49;37.23;101293.97;5133023;27;8826;-61
2023/04/03 11:15:52;;;;;;;;;0.40;0.40;;;;;18.52;36.50;101280.22;5131712;27;8826;-60
2023/04/03 11:18:21;;;;;;;;;0.00;0.00;;;;;18.58;35.41;101282.38;5114378;28;8828;-58
2023/04/03 11:20:49;;;;;;;;;1.00;1.00;;;;;18.66;35.35;101285.22;5112347;28;8838;-60
2023/04/03 11:23:17;;;;;;;;;0.00;0.00;;;;;18.69;35.16;101275.00;5113544;28;8879;-59
2023/04/03 11:25:45;;;;;;;;;1.00;0.00;;;;;18.70;35.29;101282.09;5112615;28;8991;-59
2023/04/03 11:28:13;;;;;;;;;1.00;0.00;;;;;18.80;34.46;101287.47;5112531;28;8875;-60
2023/04/03 11:30:42;;;;;;;;;0.00;0.00;;;;;18.73;34.03;101271.00;5121724;27;8836;-59
2023/04/03 11:33:10;;;;;;;;;0.20;0.20;;;;;18.85;33.60;101271.72;5132431;27;8814;-59
2023/04/03 11:35:38;;;;;;;;;0.80;0.00;;;;;18.98;32.73;101278.50;5133349;27;8926;-59
2023/04/03 11:38:07;;;;;;;;;1.20;0.00;;;;;18.96;33.47;101276.97;5133621;27;8949;-60
2023/04/03 11:40:35;;;;;;;;;0.60;0.00;;;;;19.13;33.02;101274.38;5133862;27;8837;-59
2023/04/03 11:43:04;;;;;;;;;1.80;1.00;;;;;19.22;32.89;101270.00;5134537;27;8838;-59
2023/04/03 11:45:32;;;;;;;;;0.00;0.00;;;;;19.11;32.41;101259.34;5134935;27;8887;-60